createdAt,value
2018-05-11T00:00:19.459Z,8.90
2018-05-11T00:02:46.953Z,12.75
2018-05-11T00:05:14.428Z,10.27
2018-05-11T00:07:41.917Z,14.38
2018-05-11T00:10:10.154Z,8.10
2018-05-11T00:12:37.651Z,11.85
2018-05-11T00:15:05.122Z,7.60
2018-05-11T00:17:32.613Z,6.68
2018-05-11T00:20:00.087Z,12.98
2018-05-11T00:22:27.574Z,8.73
2018-05-11T00:24:55.884Z,11.38
2018-05-11T00:27:23.380Z,14.73
2018-05-11T00:29:50.853Z,15.70
2018-05-11T00:32:18.344Z,15.65
2018-05-11T00:34:46.589Z,7.50
2018-05-11T00:37:14.850Z,8.02
2018-05-11T00:39:42.322Z,8.90
2018-05-11T00:42:09.814Z,12.52
2018-05-11T00:44:38.050Z,8.18
2018-05-11T00:47:05.541Z,10.77
2018-05-11T00:49:33.782Z,12.30
2018-05-11T00:52:01.277Z,11.82
2018-05-11T00:54:29.517Z,16.17
2018-05-11T00:56:57.009Z,19.80
2018-05-11T00:59:25.261Z,10.90
2018-05-11T01:01:52.748Z,8.98
2018-05-11T01:04:20.993Z,10.65
2018-05-11T01:06:48.498Z,9.40
2018-05-11T01:09:15.988Z,12.02
2018-05-11T01:11:43.462Z,9.13
2018-05-11T01:14:10.957Z,11.32
2018-05-11T01:16:39.206Z,7.75
2018-05-11T01:19:06.693Z,8.07
2018-05-11T01:21:34.934Z,6.72
2018-05-11T01:24:02.425Z,12.20
2018-05-11T01:26:30.665Z,7.18
2018-05-11T01:28:58.152Z,9.30
2018-05-11T01:31:25.637Z,9.88
2018-05-11T01:33:53.914Z,14.35
2018-05-11T01:36:21.391Z,8.25
2018-05-11T01:38:48.877Z,7.55
2018-05-11T01:41:16.362Z,13.43
2018-05-11T01:43:43.853Z,13.70
2018-05-11T01:46:12.095Z,9.55
2018-05-11T01:48:39.580Z,15.00
2018-05-11T01:51:07.825Z,13.15
2018-05-11T01:53:35.319Z,15.82
2018-05-11T01:56:03.558Z,12.50
2018-05-11T01:58:31.052Z,11.30
2018-05-11T02:00:59.299Z,11.77
2018-05-11T02:03:26.811Z,12.02
2018-05-11T02:05:54.286Z,25.92
2018-05-11T02:08:21.806Z,14.52
2018-05-11T02:10:50.049Z,8.95
2018-05-11T02:13:17.549Z,11.15
2018-05-11T02:15:45.033Z,9.82
2018-05-11T02:18:12.529Z,10.05
2018-05-11T02:20:40.000Z,14.68
2018-05-11T02:23:07.475Z,14.23
2018-05-11T02:25:35.732Z,12.45
2018-05-11T02:28:03.209Z,13.05
2018-05-11T02:30:31.473Z,9.85
2018-05-11T02:32:58.948Z,7.78
2018-05-11T02:35:27.211Z,7.72
2018-05-11T02:37:54.685Z,10.48
2018-05-11T02:40:22.948Z,8.10
2018-05-11T02:42:51.196Z,9.57
2018-05-11T02:45:18.694Z,9.00
2018-05-11T02:47:46.952Z,15.02
2018-05-11T02:50:14.455Z,10.02
2018-05-11T02:52:41.933Z,8.65
2018-05-11T02:55:09.433Z,10.00
2018-05-11T02:57:36.912Z,9.85
2018-05-11T03:00:05.169Z,9.70
2018-05-11T03:02:32.649Z,11.35
2018-05-11T03:05:00.906Z,8.95
2018-05-11T03:07:28.378Z,7.53
2018-05-11T03:09:56.637Z,8.45
2018-05-11T03:12:24.118Z,10.02
2018-05-11T03:14:52.384Z,10.05
2018-05-11T03:17:19.853Z,8.68
2018-05-11T03:19:48.121Z,10.68
2018-05-11T03:22:16.373Z,9.02
2018-05-11T03:24:43.861Z,13.25
2018-05-11T03:27:12.109Z,13.10
2018-05-11T03:29:39.601Z,11.27
2018-05-11T03:32:07.845Z,15.02
2018-05-11T03:34:35.325Z,8.80
2018-05-11T03:37:04.336Z,7.40
2018-05-11T03:39:32.578Z,11.25
2018-05-11T03:42:00.076Z,13.90
2018-05-11T03:44:28.321Z,7.78
2018-05-11T03:46:55.813Z,10.60
2018-05-11T03:49:24.061Z,14.07
2018-05-11T03:51:51.556Z,11.23
2018-05-11T03:54:19.037Z,15.32
2018-05-11T03:56:46.533Z,13.77
2018-05-11T03:59:14.010Z,10.70
2018-05-11T04:01:53.413Z,10.75
2018-05-11T04:04:32.908Z,9.25
2018-05-11T04:07:12.994Z,10.55
2018-05-11T04:09:40.470Z,14.10
2018-05-11T04:12:07.961Z,11.40
2018-05-11T04:14:37.104Z,9.13
2018-05-11T04:17:04.598Z,10.90
2018-05-11T04:19:32.074Z,16.50
2018-05-11T04:21:59.610Z,9.48
2018-05-11T04:24:27.087Z,8.90
2018-05-11T04:26:54.578Z,7.35
2018-05-11T04:29:22.892Z,13.45
2018-05-11T04:31:50.389Z,10.00
2018-05-11T04:34:17.870Z,8.00
2018-05-11T04:36:46.132Z,10.50
2018-05-11T04:39:14.387Z,16.80
2018-05-11T04:41:42.333Z,12.05
2018-05-11T04:44:09.823Z,15.20
2018-05-11T04:46:37.320Z,14.35
2018-05-11T04:49:04.793Z,13.95
2018-05-11T04:51:32.291Z,11.10
2018-05-11T04:53:59.769Z,9.35
2018-05-11T04:56:28.033Z,11.73
2018-05-11T04:58:55.502Z,14.80
2018-05-11T05:01:22.978Z,14.20
2018-05-11T05:03:51.337Z,17.70
2018-05-11T05:06:18.809Z,18.08
2018-05-11T05:08:47.066Z,17.50
2018-05-11T05:11:14.545Z,10.25
2018-05-11T05:13:42.806Z,16.23
2018-05-11T05:16:10.277Z,20.17
2018-05-11T05:18:38.548Z,13.25
2018-05-11T05:21:06.025Z,15.55
2018-05-11T05:23:34.280Z,11.63
2018-05-11T05:26:01.757Z,13.95
2018-05-11T05:28:30.023Z,16.48
2018-05-11T05:30:58.269Z,16.25
2018-05-11T05:33:25.761Z,16.15
2018-05-11T05:35:54.409Z,16.62
2018-05-11T05:38:21.914Z,17.73
2018-05-11T05:40:50.165Z,11.23
2018-05-11T05:43:17.657Z,16.27
2018-05-11T05:45:46.006Z,22.80
2018-05-11T05:48:13.433Z,19.25
2018-05-11T05:50:40.908Z,15.98
2018-05-11T05:53:08.417Z,14.35
2018-05-11T05:55:35.901Z,15.95
2018-05-11T05:58:03.394Z,15.80
2018-05-11T06:00:30.878Z,16.60
2018-05-11T06:02:59.136Z,13.27
2018-05-11T06:05:26.662Z,9.00
2018-05-11T06:07:54.925Z,13.18
2018-05-11T06:10:22.406Z,13.98
2018-05-11T06:12:49.909Z,12.07
2018-05-11T06:15:18.157Z,17.45
2018-05-11T06:17:45.703Z,9.85
2018-05-11T06:20:13.165Z,14.23
2018-05-11T06:22:40.655Z,15.77
2018-05-11T06:25:08.787Z,13.43
2018-05-11T06:27:36.277Z,11.68
2018-05-11T06:30:03.769Z,8.43
2018-05-11T06:32:32.033Z,10.48
2018-05-11T06:35:00.301Z,14.45
2018-05-11T06:37:27.774Z,11.65
2018-05-11T06:39:56.040Z,14.32
2018-05-11T06:42:23.518Z,13.65
2018-05-11T06:44:51.796Z,13.98
2018-05-11T06:47:20.047Z,8.38
2018-05-11T06:49:47.541Z,14.70
2018-05-11T06:52:15.025Z,11.73
2018-05-11T06:54:42.637Z,16.23
2018-05-11T06:57:10.896Z,14.73
2018-05-11T06:59:38.397Z,21.20
2018-05-11T07:02:06.652Z,19.08
2018-05-11T07:04:34.918Z,16.20
2018-05-11T07:07:02.435Z,18.23
2018-05-11T07:09:29.912Z,30.62
2018-05-11T07:11:57.394Z,17.20
2018-05-11T07:14:24.899Z,19.90
2018-05-11T07:16:52.389Z,23.17
2018-05-11T07:19:19.907Z,20.90
2018-05-11T07:21:48.165Z,21.60
2018-05-11T07:24:16.418Z,22.92
2018-05-11T07:26:43.917Z,21.95
2018-05-11T07:29:12.161Z,28.83
2018-05-11T07:31:39.656Z,29.45
2018-05-11T07:34:07.906Z,30.60
2018-05-11T07:36:36.181Z,35.15
2018-05-11T07:39:03.723Z,31.42
2018-05-11T07:41:31.173Z,41.10
2018-05-11T07:43:58.741Z,39.40
2018-05-11T07:46:26.940Z,39.75
2018-05-11T07:48:55.197Z,38.10
2018-05-11T07:51:22.698Z,36.40
2018-05-11T07:53:50.948Z,46.83
2018-05-11T07:56:18.449Z,41.58
2018-05-11T07:58:45.942Z,35.00
2018-05-11T08:01:13.449Z,32.38
2018-05-11T08:03:41.699Z,39.97
2018-05-11T08:06:09.205Z,40.10
2018-05-11T08:08:36.693Z,73.18
2018-05-11T08:11:04.193Z,48.55
2018-05-11T08:13:32.445Z,50.83
2018-05-11T08:15:59.946Z,46.55
2018-05-11T08:18:27.451Z,39.22
2018-05-11T08:20:54.953Z,38.22
2018-05-11T08:23:23.204Z,41.50
2018-05-11T08:25:50.707Z,48.13
2018-05-11T08:28:18.193Z,42.30
2018-05-11T08:30:45.693Z,33.15
2018-05-11T08:33:13.185Z,36.58
2018-05-11T08:35:40.696Z,34.15
2018-05-11T08:38:08.176Z,41.42
2018-05-11T08:40:36.438Z,39.95
2018-05-11T08:43:03.946Z,36.83
2018-05-11T08:45:31.431Z,44.33
2018-05-11T08:47:58.935Z,29.90
2018-05-11T08:50:27.194Z,36.50
2018-05-11T08:52:54.688Z,39.17
2018-05-11T08:55:22.929Z,36.70
2018-05-11T08:57:50.420Z,40.67
2018-05-11T09:00:17.909Z,34.95
2018-05-11T09:02:45.405Z,35.03
2018-05-11T09:05:12.888Z,40.70
2018-05-11T09:07:41.157Z,34.92
2018-05-11T09:10:09.410Z,40.05
2018-05-11T09:12:36.910Z,28.08
2018-05-11T09:15:05.169Z,41.85
2018-05-11T09:17:32.675Z,38.63
2018-05-11T09:20:00.161Z,33.92
2018-05-11T09:22:27.691Z,33.60
2018-05-11T09:24:55.180Z,32.33
2018-05-11T09:27:22.677Z,37.97
2018-05-11T09:29:50.929Z,38.17
2018-05-11T09:32:18.425Z,36.03
2018-05-11T09:34:46.678Z,32.55
2018-05-11T09:37:14.186Z,40.08
2018-05-11T09:39:41.738Z,31.83
2018-05-11T09:42:09.161Z,44.22
2018-05-11T09:44:37.425Z,36.50
2018-05-11T09:47:04.953Z,44.47
2018-05-11T09:49:32.504Z,29.17
2018-05-11T09:52:00.709Z,33.50
2018-05-11T09:54:28.211Z,32.92
2018-05-11T09:56:56.460Z,25.73
2018-05-11T09:59:23.952Z,33.08
2018-05-11T10:01:51.473Z,40.78
2018-05-11T10:04:18.966Z,32.85
2018-05-11T10:06:47.216Z,34.22
2018-05-11T10:09:14.713Z,35.47
2018-05-11T10:11:42.193Z,32.42
2018-05-11T10:14:09.690Z,31.95
2018-05-11T10:16:37.168Z,26.83
2018-05-11T10:19:05.442Z,32.22
2018-05-11T10:21:33.688Z,29.55
2018-05-11T10:24:01.201Z,31.95
2018-05-11T10:26:28.717Z,35.83
2018-05-11T10:28:56.280Z,35.50
2018-05-11T10:31:23.717Z,28.75
2018-05-11T10:33:51.217Z,30.98
2018-05-11T10:36:19.464Z,30.20
2018-05-11T10:38:46.961Z,25.00
2018-05-11T10:41:15.210Z,28.17
2018-05-11T10:43:42.713Z,36.25
2018-05-11T10:46:10.194Z,24.05
2018-05-11T10:48:37.749Z,30.25
2018-05-11T10:51:05.203Z,23.62
2018-05-11T10:53:32.680Z,23.38
2018-05-11T10:56:00.173Z,27.10
2018-05-11T10:58:27.661Z,24.95
2018-05-11T11:00:55.933Z,31.80
2018-05-11T11:03:24.185Z,27.27
2018-05-11T11:05:51.680Z,30.75
2018-05-11T11:08:19.164Z,21.27
2018-05-11T11:10:46.674Z,27.98
2018-05-11T11:13:14.921Z,28.48
2018-05-11T11:15:42.428Z,34.65
2018-05-11T11:18:09.923Z,32.22
2018-05-11T11:20:37.429Z,33.00
2018-05-11T11:23:05.677Z,32.20
2018-05-11T11:25:33.173Z,30.17
2018-05-11T11:28:01.426Z,26.73
2018-05-11T11:30:28.930Z,25.25
2018-05-11T11:32:56.425Z,41.15
2018-05-11T11:35:23.928Z,27.27
2018-05-11T11:37:52.177Z,33.80
2018-05-11T11:40:19.678Z,30.15
2018-05-11T11:42:47.934Z,27.33
2018-05-11T11:45:16.201Z,32.60
2018-05-11T11:47:43.686Z,33.08
2018-05-11T11:50:11.953Z,28.30
2018-05-11T11:52:40.204Z,30.77
2018-05-11T11:55:07.707Z,34.40
2018-05-11T11:57:35.189Z,33.83
2018-05-11T12:00:02.685Z,31.50
2018-05-11T12:02:30.175Z,33.70
2018-05-11T12:04:58.432Z,29.55
2018-05-11T12:07:26.703Z,29.23
2018-05-11T12:09:54.186Z,31.02
2018-05-11T12:12:22.457Z,25.45
2018-05-11T12:14:50.704Z,25.83
2018-05-11T12:17:18.200Z,27.90
2018-05-11T12:19:45.677Z,25.70
2018-05-11T12:22:13.176Z,37.15
2018-05-11T12:24:40.656Z,32.88
2018-05-11T12:27:08.162Z,34.97
2018-05-11T12:29:35.647Z,28.90
2018-05-11T12:32:03.153Z,29.05
2018-05-11T12:34:31.398Z,26.37
2018-05-11T12:36:58.897Z,33.08
2018-05-11T12:39:27.140Z,34.65
2018-05-11T12:41:54.645Z,28.95
2018-05-11T12:44:22.130Z,33.17
2018-05-11T12:46:49.625Z,31.45
2018-05-11T12:49:17.107Z,31.77
2018-05-11T12:51:45.373Z,26.15
2018-05-11T12:54:13.617Z,27.77
2018-05-11T12:56:41.114Z,26.65
2018-05-11T12:59:09.422Z,25.73
2018-05-11T13:01:36.920Z,30.85
2018-05-11T13:04:04.406Z,28.80
2018-05-11T13:06:32.681Z,30.10
2018-05-11T13:09:00.934Z,25.10
2018-05-11T13:11:28.416Z,25.45
2018-05-11T13:13:56.682Z,23.65
2018-05-11T13:16:24.165Z,22.05
2018-05-11T13:18:52.432Z,30.95
2018-05-11T13:21:20.680Z,29.05
2018-05-11T13:23:48.177Z,29.27
2018-05-11T13:26:16.481Z,29.25
2018-05-11T13:28:43.983Z,27.13
2018-05-11T13:31:11.477Z,28.08
2018-05-11T13:33:38.976Z,35.83
2018-05-11T13:36:06.467Z,22.40
2018-05-11T13:38:33.961Z,26.30
2018-05-11T13:41:02.205Z,29.63
2018-05-11T13:43:31.212Z,32.08
2018-05-11T13:45:59.484Z,27.20
2018-05-11T13:48:27.071Z,26.65
2018-05-11T13:50:54.482Z,35.03
2018-05-11T13:53:21.986Z,26.33
2018-05-11T13:55:49.469Z,25.30
2018-05-11T13:58:16.961Z,23.85
2018-05-11T14:00:44.444Z,28.12
2018-05-11T14:03:12.716Z,25.35
2018-05-11T14:05:41.704Z,33.20
2018-05-11T14:08:09.205Z,25.00
2018-05-11T14:10:36.685Z,27.50
2018-05-11T14:13:04.185Z,27.48
2018-05-11T14:15:31.664Z,22.15
2018-05-11T14:17:59.934Z,31.40
2018-05-11T14:20:28.197Z,26.30
2018-05-11T14:22:55.800Z,25.85
2018-05-11T14:25:23.289Z,24.75
2018-05-11T14:27:50.786Z,31.73
2018-05-11T14:30:19.053Z,27.23
2018-05-11T14:32:46.538Z,26.23
2018-05-11T14:35:14.043Z,27.58
2018-05-11T14:37:41.529Z,58.92
2018-05-11T14:40:09.023Z,27.60
2018-05-11T14:42:36.504Z,27.02
2018-05-11T14:45:04.011Z,34.17
2018-05-11T14:47:32.266Z,28.95
2018-05-11T14:49:59.769Z,25.83
2018-05-11T14:52:28.031Z,22.17
2018-05-11T14:54:56.299Z,24.80
2018-05-11T14:57:23.785Z,25.17
2018-05-11T14:59:52.045Z,32.13
2018-05-11T15:02:20.298Z,30.73
2018-05-11T15:04:48.638Z,22.42
2018-05-11T15:07:16.117Z,26.08
2018-05-11T15:09:43.613Z,26.75
2018-05-11T15:12:11.861Z,26.95
2018-05-11T15:14:39.357Z,23.35
2018-05-11T15:17:07.605Z,29.95
2018-05-11T15:19:35.105Z,24.85
2018-05-11T15:22:03.356Z,22.42
2018-05-11T15:24:30.867Z,25.92
2018-05-11T15:26:58.357Z,28.55
2018-05-11T15:29:25.863Z,21.50
2018-05-11T15:31:53.347Z,28.20
2018-05-11T15:34:20.857Z,28.83
2018-05-11T15:36:49.162Z,27.00
2018-05-11T15:39:17.426Z,22.45
2018-05-11T15:41:45.684Z,21.90
2018-05-11T15:44:13.197Z,31.58
2018-05-11T15:46:40.684Z,30.17
2018-05-11T15:49:08.170Z,24.42
2018-05-11T15:51:36.481Z,30.05
2018-05-11T15:54:03.969Z,23.12
2018-05-11T15:56:31.466Z,30.05
2018-05-11T15:58:59.780Z,27.60
2018-05-11T16:01:27.230Z,22.42
2018-05-11T16:03:54.715Z,23.77
2018-05-11T16:06:22.218Z,26.62
2018-05-11T16:08:50.475Z,26.85
2018-05-11T16:11:18.090Z,24.42
2018-05-11T16:13:45.589Z,27.27
2018-05-11T16:16:13.085Z,28.45
2018-05-11T16:18:41.332Z,28.30
2018-05-11T16:21:08.825Z,24.85
2018-05-11T16:23:37.065Z,25.92
2018-05-11T16:26:04.561Z,32.92
2018-05-11T16:28:32.810Z,26.80
2018-05-11T16:31:00.309Z,25.05
2018-05-11T16:33:28.549Z,26.90
2018-05-11T16:35:56.058Z,28.48
2018-05-11T16:38:23.628Z,29.12
2018-05-11T16:40:51.133Z,30.92
2018-05-11T16:43:18.617Z,25.98
2018-05-11T16:45:46.886Z,23.83
2018-05-11T16:48:15.138Z,26.98
2018-05-11T16:50:42.641Z,26.70
2018-05-11T16:53:10.121Z,25.12
2018-05-11T16:55:37.597Z,24.90
2018-05-11T16:58:05.289Z,25.08
2018-05-11T17:00:32.773Z,26.20
2018-05-11T17:03:01.035Z,25.55
2018-05-11T17:05:29.294Z,23.65
2018-05-11T17:07:56.794Z,21.58
2018-05-11T17:10:25.041Z,23.40
2018-05-11T17:12:53.317Z,31.40
2018-05-11T17:15:20.822Z,22.45
2018-05-11T17:17:48.328Z,22.65
2018-05-11T17:20:15.817Z,23.30
2018-05-11T17:22:43.437Z,25.67
2018-05-11T17:25:10.824Z,21.73
2018-05-11T17:27:39.101Z,26.42
2018-05-11T17:30:07.354Z,26.25
2018-05-11T17:32:34.973Z,26.48
2018-05-11T17:35:02.463Z,21.42
2018-05-11T17:37:29.973Z,24.20
2018-05-11T17:39:58.239Z,23.35
2018-05-11T17:42:26.522Z,21.62
2018-05-11T17:44:54.021Z,24.98
2018-05-11T17:47:21.539Z,26.85
2018-05-11T17:49:49.801Z,25.52
2018-05-11T17:52:18.081Z,22.55
2018-05-11T17:54:45.574Z,23.62
2018-05-11T17:57:13.073Z,23.20
2018-05-11T17:59:40.674Z,23.67
2018-05-11T18:02:08.925Z,26.83
2018-05-11T18:04:36.631Z,20.02
2018-05-11T18:07:04.168Z,28.50
2018-05-11T18:09:32.433Z,20.67
2018-05-11T18:11:59.910Z,26.40
2018-05-11T18:14:28.186Z,24.90
2018-05-11T18:16:56.443Z,23.77
2018-05-11T18:19:23.942Z,20.77
2018-05-11T18:21:51.426Z,25.37
2018-05-11T18:24:18.928Z,25.23
2018-05-11T18:26:46.422Z,27.48
2018-05-11T18:29:13.961Z,28.00
2018-05-11T18:31:42.221Z,27.08
2018-05-11T18:34:09.725Z,29.08
2018-05-11T18:36:37.213Z,28.17
2018-05-11T18:39:05.636Z,33.38
2018-05-11T18:41:33.899Z,24.40
2018-05-11T18:44:01.402Z,30.60
2018-05-11T18:46:28.893Z,29.85
2018-05-11T18:48:56.403Z,22.00
2018-05-11T18:51:24.649Z,28.85
2018-05-11T18:53:52.454Z,26.30
2018-05-11T18:56:19.646Z,26.15
2018-05-11T18:58:47.145Z,29.67
2018-05-11T19:01:15.416Z,25.08
2018-05-11T19:03:43.693Z,22.87
2018-05-11T19:06:11.955Z,25.98
2018-05-11T19:08:39.466Z,25.92
2018-05-11T19:11:06.953Z,31.15
2018-05-11T19:13:34.434Z,33.15
2018-05-11T19:16:01.925Z,29.37
2018-05-11T19:18:30.172Z,35.95
2018-05-11T19:20:57.668Z,29.45
2018-05-11T19:23:25.920Z,27.75
2018-05-11T19:25:54.928Z,22.42
2018-05-11T19:28:23.173Z,27.40
2018-05-11T19:31:01.948Z,31.50
2018-05-11T19:33:29.437Z,25.77
2018-05-11T19:35:56.943Z,30.52
2018-05-11T19:38:25.185Z,27.62
2018-05-11T19:40:52.686Z,35.35
2018-05-11T19:43:20.181Z,36.55
2018-05-11T19:45:47.681Z,28.02
2018-05-11T19:48:15.169Z,26.90
2018-05-11T19:50:43.429Z,27.33
2018-05-11T19:53:11.681Z,29.90
2018-05-11T19:55:39.198Z,35.35
2018-05-11T19:58:06.685Z,24.20
2018-05-11T20:00:34.189Z,26.42
2018-05-11T20:03:02.439Z,31.98
2018-05-11T20:05:29.954Z,36.85
2018-05-11T20:07:57.453Z,30.40
2018-05-11T20:10:25.722Z,37.13
2018-05-11T20:12:53.205Z,36.63
2018-05-11T20:15:20.697Z,40.22
2018-05-11T20:17:48.180Z,37.17
2018-05-11T20:20:15.686Z,37.25
2018-05-11T20:22:43.165Z,30.48
2018-05-11T20:25:11.430Z,29.25
2018-05-11T20:27:39.683Z,28.05
2018-05-11T20:30:07.185Z,28.83
2018-05-11T20:32:34.756Z,32.10
2018-05-11T20:35:02.217Z,42.58
2018-05-11T20:37:29.703Z,40.88
2018-05-11T20:39:57.181Z,33.65
2018-05-11T20:42:24.687Z,30.95
2018-05-11T20:44:52.260Z,31.73
2018-05-11T20:47:19.799Z,36.47
2018-05-11T20:49:47.289Z,43.83
2018-05-11T20:52:14.801Z,32.35
2018-05-11T20:54:42.281Z,25.12
2018-05-11T20:57:10.547Z,34.10
2018-05-11T20:59:38.798Z,40.58
2018-05-11T21:02:06.296Z,37.25
2018-05-11T21:04:33.782Z,35.33
2018-05-11T21:07:01.273Z,31.98
2018-05-11T21:09:28.760Z,31.98
2018-05-11T21:11:57.030Z,33.35
2018-05-11T21:14:25.346Z,37.05
2018-05-11T21:16:52.794Z,37.00
2018-05-11T21:19:20.291Z,34.88
2018-05-11T21:21:47.803Z,28.80
2018-05-11T21:24:16.046Z,31.05
2018-05-11T21:26:43.549Z,29.67
2018-05-11T21:29:11.038Z,37.80
2018-05-11T21:31:38.537Z,35.28
2018-05-11T21:34:06.859Z,35.92
2018-05-11T21:36:34.356Z,38.00
2018-05-11T21:39:01.839Z,31.25
2018-05-11T21:41:30.111Z,33.05
2018-05-11T21:43:57.589Z,45.70
2018-05-11T21:46:25.854Z,36.67
2018-05-11T21:48:54.107Z,34.28
2018-05-11T21:51:21.621Z,36.92
2018-05-11T21:53:49.105Z,35.75
2018-05-11T21:56:16.582Z,28.38
2018-05-11T21:58:44.078Z,37.20
2018-05-11T22:01:12.321Z,39.33
2018-05-11T22:03:39.826Z,32.40
2018-05-11T22:06:07.313Z,41.40
2018-05-11T22:08:34.813Z,37.28
2018-05-11T22:11:03.797Z,39.63
2018-05-11T22:13:31.345Z,36.42
2018-05-11T22:15:58.801Z,36.45
2018-05-11T22:18:26.302Z,40.20
2018-05-11T22:20:54.549Z,34.08
2018-05-11T22:23:22.043Z,33.05
2018-05-11T22:25:49.532Z,45.58
2018-05-11T22:28:17.026Z,39.75
2018-05-11T22:30:44.513Z,41.58
2018-05-11T22:33:12.777Z,36.13
2018-05-11T22:35:41.021Z,45.42
2018-05-11T22:38:08.521Z,38.80
2018-05-11T22:40:36.769Z,44.95
2018-05-11T22:43:04.273Z,32.85
2018-05-11T22:45:32.524Z,41.55
2018-05-11T22:48:00.798Z,43.70
2018-05-11T22:50:28.274Z,42.40
2018-05-11T22:52:56.534Z,38.35
2018-05-11T22:55:24.009Z,35.85
2018-05-11T22:57:52.273Z,40.42
2018-05-11T23:00:25.085Z,39.80
2018-05-11T23:02:53.349Z,49.80
2018-05-11T23:05:21.610Z,41.20
2018-05-11T23:07:49.110Z,43.75
2018-05-11T23:10:16.593Z,45.95
2018-05-11T23:12:44.078Z,39.50
2018-05-11T23:15:11.584Z,33.65
2018-05-11T23:17:39.070Z,46.95
2018-05-11T23:20:06.568Z,37.15
2018-05-11T23:22:36.025Z,36.53
2018-05-11T23:25:03.521Z,43.58
2018-05-11T23:27:31.005Z,49.20
2018-05-11T23:29:59.270Z,40.42
2018-05-11T23:32:27.521Z,40.47
2018-05-11T23:34:55.792Z,43.35
2018-05-11T23:37:23.274Z,42.92
2018-05-11T23:39:50.764Z,48.08
2018-05-11T23:42:18.248Z,40.28
2018-05-11T23:44:45.753Z,53.67
2018-05-11T23:47:13.233Z,47.35
2018-05-11T23:49:41.525Z,50.55
2018-05-11T23:52:08.990Z,43.87
2018-05-11T23:54:36.488Z,46.25
2018-05-11T23:57:03.974Z,49.65
2018-05-11T23:59:31.477Z,43.87
